Impacts TAF Board INFO
FOR SITUATIONAL AWARENESS. NOT TO BE USED FOR FLIGHT PLANNING PURPOSES.
IDs:

KDFW - Dallas-Ft Worth Intl, TX, US

Issued at 1735 UTC 16 Aug 2018
Updated at 2020 UTC 16 Aug 2018
Potential Impact None Slight Moderate High
Time<<17/21Z 17/22Z 17/23Z 18/00Z 18/01Z 18/02Z 18/03Z 18/04Z 18/05Z 18/06Z 18/07Z 18/08Z 18/09Z
Type PRVL PRVL PRVL
VIS >6 >6 >6
CIG -- -- --
Cover SCT SCT SCT
FltCat VFR VFR VFR
WX VCTS -- --
WDir 200 210 210
WSpd 12 12 12
WGst -- -- --

Raw TAF
KDFW 161735Z 1618/1724 19012KT P6SM FEW050 BKN300
  FM171100 19011KT P6SM VCSH SCT120
  FM171500 20011KT P6SM SCT120
  FM171800 20012KT P6SM VCTS SCT050CB
  FM172200 21012KT P6SM SCT050


METAR Board
Radar Display
Forecast Discussion

FOR SITUATIONAL AWARENESS. NOT TO BE USED FOR FLIGHT PLANNING PURPOSES.